sensor_id;sensor_type;location;lat;lon;timestamp;P1;durP1;ratioP1;P2;durP2;ratioP2
67828;SDS011;54626;45.436;10.942;2024-01-07T00:02:12;6.70;;;4.60;;
67828;SDS011;54626;45.436;10.942;2024-01-07T00:07:08;5.38;;;2.25;;
67828;SDS011;54626;45.436;10.942;2024-01-07T00:09:47;3.03;;;2.63;;
67828;SDS011;54626;45.436;10.942;2024-01-07T00:12:14;3.47;;;2.75;;
67828;SDS011;54626;45.436;10.942;2024-01-07T00:14:43;3.88;;;2.92;;
67828;SDS011;54626;45.436;10.942;2024-01-07T00:17:12;2.63;;;1.65;;
67828;SDS011;54626;45.436;10.942;2024-01-07T00:19:38;3.55;;;1.88;;
67828;SDS011;54626;45.436;10.942;2024-01-07T00:22:07;3.63;;;2.10;;
67828;SDS011;54626;45.436;10.942;2024-01-07T00:24:34;2.60;;;1.52;;
67828;SDS011;54626;45.436;10.942;2024-01-07T00:29:27;5.28;;;3.13;;
67828;SDS011;54626;45.436;10.942;2024-01-07T00:31:54;2.58;;;2.40;;
67828;SDS011;54626;45.436;10.942;2024-01-07T00:34:22;4.63;;;3.60;;
67828;SDS011;54626;45.436;10.942;2024-01-07T00:36:49;5.22;;;3.13;;
67828;SDS011;54626;45.436;10.942;2024-01-07T00:41:42;6.00;;;3.05;;
67828;SDS011;54626;45.436;10.942;2024-01-07T00:44:09;3.03;;;2.60;;
67828;SDS011;54626;45.436;10.942;2024-01-07T00:46:38;1.38;;;1.17;;
67828;SDS011;54626;45.436;10.942;2024-01-07T00:49:05;2.17;;;2.00;;
67828;SDS011;54626;45.436;10.942;2024-01-07T00:51:33;4.47;;;3.47;;
67828;SDS011;54626;45.436;10.942;2024-01-07T00:54:00;4.53;;;2.80;;
67828;SDS011;54626;45.436;10.942;2024-01-07T00:58:55;5.50;;;2.47;;
67828;SDS011;54626;45.436;10.942;2024-01-07T01:01:22;5.43;;;3.72;;
67828;SDS011;54626;45.436;10.942;2024-01-07T01:03:49;3.08;;;2.78;;
67828;SDS011;54626;45.436;10.942;2024-01-07T01:06:21;11.38;;;2.85;;
67828;SDS011;54626;45.436;10.942;2024-01-07T01:08:49;2.75;;;2.28;;
67828;SDS011;54626;45.436;10.942;2024-01-07T01:11:16;1.83;;;1.73;;
67828;SDS011;54626;45.436;10.942;2024-01-07T01:13:46;1.67;;;1.58;;
67828;SDS011;54626;45.436;10.942;2024-01-07T01:19:04;3.13;;;2.92;;
67828;SDS011;54626;45.436;10.942;2024-01-07T01:21:32;7.55;;;3.28;;
67828;SDS011;54626;45.436;10.942;2024-01-07T01:24:01;9.25;;;3.85;;
67828;SDS011;54626;45.436;10.942;2024-01-07T01:26:31;2.85;;;1.90;;
67828;SDS011;54626;45.436;10.942;2024-01-07T01:28:57;1.92;;;1.33;;
67828;SDS011;54626;45.436;10.942;2024-01-07T01:31:26;3.53;;;2.47;;
67828;SDS011;54626;45.436;10.942;2024-01-07T01:33:55;3.95;;;3.58;;
67828;SDS011;54626;45.436;10.942;2024-01-07T01:36:22;6.93;;;4.03;;
67828;SDS011;54626;45.436;10.942;2024-01-07T01:38:48;7.47;;;5.20;;
67828;SDS011;54626;45.436;10.942;2024-01-07T01:41:17;3.72;;;2.42;;
67828;SDS011;54626;45.436;10.942;2024-01-07T01:43:44;4.63;;;3.47;;
67828;SDS011;54626;45.436;10.942;2024-01-07T01:46:11;7.80;;;3.65;;
67828;SDS011;54626;45.436;10.942;2024-01-07T01:51:17;3.58;;;3.28;;
67828;SDS011;54626;45.436;10.942;2024-01-07T01:53:48;4.68;;;3.47;;
67828;SDS011;54626;45.436;10.942;2024-01-07T01:56:20;6.05;;;4.18;;
67828;SDS011;54626;45.436;10.942;2024-01-07T01:58:47;3.30;;;1.77;;
67828;SDS011;54626;45.436;10.942;2024-01-07T02:01:16;4.10;;;3.42;;
67828;SDS011;54626;45.436;10.942;2024-01-07T02:04:46;4.57;;;3.65;;
67828;SDS011;54626;45.436;10.942;2024-01-07T02:07:13;4.97;;;2.45;;
67828;SDS011;54626;45.436;10.942;2024-01-07T02:09:40;4.93;;;4.55;;
67828;SDS011;54626;45.436;10.942;2024-01-07T02:12:07;4.32;;;3.35;;
67828;SDS011;54626;45.436;10.942;2024-01-07T02:14:38;4.60;;;3.63;;
67828;SDS011;54626;45.436;10.942;2024-01-07T02:17:06;5.47;;;4.05;;
67828;SDS011;54626;45.436;10.942;2024-01-07T02:19:33;2.03;;;1.73;;
67828;SDS011;54626;45.436;10.942;2024-01-07T02:22:00;4.90;;;3.58;;
67828;SDS011;54626;45.436;10.942;2024-01-07T02:24:28;3.22;;;2.95;;
67828;SDS011;54626;45.436;10.942;2024-01-07T02:27:32;18.30;;;3.20;;
67828;SDS011;54626;45.436;10.942;2024-01-07T02:29:59;1.70;;;1.58;;
67828;SDS011;54626;45.436;10.942;2024-01-07T02:32:36;2.42;;;2.20;;
67828;SDS011;54626;45.436;10.942;2024-01-07T02:35:04;0.52;;;0.52;;
67828;SDS011;54626;45.436;10.942;2024-01-07T02:37:31;8.45;;;1.42;;
67828;SDS011;54626;45.436;10.942;2024-01-07T02:39:59;1.10;;;0.85;;
67828;SDS011;54626;45.436;10.942;2024-01-07T02:42:27;1.55;;;0.95;;
67828;SDS011;54626;45.436;10.942;2024-01-07T02:44:56;0.88;;;0.88;;
67828;SDS011;54626;45.436;10.942;2024-01-07T02:47:35;0.98;;;0.90;;
67828;SDS011;54626;45.436;10.942;2024-01-07T02:50:26;11.70;;;2.78;;
67828;SDS011;54626;45.436;10.942;2024-01-07T02:53:18;2.45;;;0.90;;
67828;SDS011;54626;45.436;10.942;2024-01-07T02:58:11;1.50;;;1.40;;
67828;SDS011;54626;45.436;10.942;2024-01-07T03:00:38;0.38;;;0.38;;
67828;SDS011;54626;45.436;10.942;2024-01-07T03:03:05;0.82;;;0.40;;
67828;SDS011;54626;45.436;10.942;2024-01-07T03:07:59;1.48;;;1.00;;
67828;SDS011;54626;45.436;10.942;2024-01-07T03:10:26;0.57;;;0.57;;
67828;SDS011;54626;45.436;10.942;2024-01-07T03:15:34;0.68;;;0.32;;
67828;SDS011;54626;45.436;10.942;2024-01-07T03:18:03;0.60;;;0.47;;
67828;SDS011;54626;45.436;10.942;2024-01-07T03:20:30;0.65;;;0.65;;
67828;SDS011;54626;45.436;10.942;2024-01-07T03:23:00;1.33;;;1.20;;
67828;SDS011;54626;45.436;10.942;2024-01-07T03:25:26;1.08;;;0.65;;
67828;SDS011;54626;45.436;10.942;2024-01-07T03:27:53;1.95;;;0.65;;
67828;SDS011;54626;45.436;10.942;2024-01-07T03:30:20;0.10;;;0.10;;
67828;SDS011;54626;45.436;10.942;2024-01-07T03:32:53;4.75;;;0.50;;
67828;SDS011;54626;45.436;10.942;2024-01-07T03:35:24;0.45;;;0.43;;
67828;SDS011;54626;45.436;10.942;2024-01-07T03:40:20;0.85;;;0.65;;
67828;SDS011;54626;45.436;10.942;2024-01-07T03:42:46;0.63;;;0.63;;
67828;SDS011;54626;45.436;10.942;2024-01-07T03:47:39;1.25;;;1.15;;
67828;SDS011;54626;45.436;10.942;2024-01-07T03:50:10;0.03;;;0.03;;
67828;SDS011;54626;45.436;10.942;2024-01-07T03:52:51;1.15;;;0.70;;
67828;SDS011;54626;45.436;10.942;2024-01-07T03:55:19;0.95;;;0.85;;
67828;SDS011;54626;45.436;10.942;2024-01-07T03:57:46;0.20;;;0.20;;
67828;SDS011;54626;45.436;10.942;2024-01-07T04:02:42;0.47;;;0.47;;
67828;SDS011;54626;45.436;10.942;2024-01-07T04:05:08;0.45;;;0.45;;
67828;SDS011;54626;45.436;10.942;2024-01-07T04:07:35;1.10;;;0.77;;
67828;SDS011;54626;45.436;10.942;2024-01-07T04:12:29;0.35;;;0.35;;
67828;SDS011;54626;45.436;10.942;2024-01-07T04:17:35;0.73;;;0.70;;
67828;SDS011;54626;45.436;10.942;2024-01-07T04:20:03;1.15;;;1.10;;
67828;SDS011;54626;45.436;10.942;2024-01-07T04:22:42;0.85;;;0.63;;
67828;SDS011;54626;45.436;10.942;2024-01-07T04:25:32;1.58;;;1.35;;
67828;SDS011;54626;45.436;10.942;2024-01-07T04:28:01;6.00;;;1.67;;
67828;SDS011;54626;45.436;10.942;2024-01-07T04:30:28;0.35;;;0.35;;
67828;SDS011;54626;45.436;10.942;2024-01-07T04:32:56;0.52;;;0.40;;
67828;SDS011;54626;45.436;10.942;2024-01-07T04:35:25;0.70;;;0.70;;
67828;SDS011;54626;45.436;10.942;2024-01-07T04:37:51;0.50;;;0.50;;
67828;SDS011;54626;45.436;10.942;2024-01-07T04:40:18;1.50;;;0.35;;
67828;SDS011;54626;45.436;10.942;2024-01-07T04:42:45;0.10;;;0.10;;
67828;SDS011;54626;45.436;10.942;2024-01-07T04:45:12;0.00;;;0.00;;
67828;SDS011;54626;45.436;10.942;2024-01-07T04:50:05;1.55;;;1.20;;
67828;SDS011;54626;45.436;10.942;2024-01-07T04:52:32;0.00;;;0.00;;
67828;SDS011;54626;45.436;10.942;2024-01-07T04:55:00;0.00;;;0.00;;
67828;SDS011;54626;45.436;10.942;2024-01-07T04:57:30;0.10;;;0.10;;
67828;SDS011;54626;45.436;10.942;2024-01-07T04:59:57;0.10;;;0.10;;
67828;SDS011;54626;45.436;10.942;2024-01-07T05:02:24;0.08;;;0.08;;
67828;SDS011;54626;45.436;10.942;2024-01-07T05:04:50;0.00;;;0.00;;
67828;SDS011;54626;45.436;10.942;2024-01-07T05:07:17;0.03;;;0.03;;
67828;SDS011;54626;45.436;10.942;2024-01-07T05:09:43;0.00;;;0.00;;
67828;SDS011;54626;45.436;10.942;2024-01-07T05:14:36;0.00;;;0.00;;
67828;SDS011;54626;45.436;10.942;2024-01-07T05:17:04;0.00;;;0.00;;
67828;SDS011;54626;45.436;10.942;2024-01-07T05:19:30;0.00;;;0.00;;
67828;SDS011;54626;45.436;10.942;2024-01-07T05:21:59;0.38;;;0.38;;
67828;SDS011;54626;45.436;10.942;2024-01-07T05:24:26;0.28;;;0.28;;
67828;SDS011;54626;45.436;10.942;2024-01-07T05:27:02;0.10;;;0.10;;
67828;SDS011;54626;45.436;10.942;2024-01-07T05:29:32;0.85;;;0.85;;
67828;SDS011;54626;45.436;10.942;2024-01-07T05:32:02;2.55;;;0.45;;
67828;SDS011;54626;45.436;10.942;2024-01-07T05:34:29;0.00;;;0.00;;
67828;SDS011;54626;45.436;10.942;2024-01-07T05:37:04;0.00;;;0.00;;
67828;SDS011;54626;45.436;10.942;2024-01-07T05:39:38;0.05;;;0.05;;
67828;SDS011;54626;45.436;10.942;2024-01-07T05:42:07;0.20;;;0.10;;
67828;SDS011;54626;45.436;10.942;2024-01-07T05:44:33;0.00;;;0.00;;
67828;SDS011;54626;45.436;10.942;2024-01-07T05:47:01;0.22;;;0.22;;
67828;SDS011;54626;45.436;10.942;2024-01-07T05:51:54;0.30;;;0.30;;
67828;SDS011;54626;45.436;10.942;2024-01-07T05:54:21;0.00;;;0.00;;
67828;SDS011;54626;45.436;10.942;2024-01-07T05:56:51;0.00;;;0.00;;
67828;SDS011;54626;45.436;10.942;2024-01-07T05:59:20;0.60;;;0.08;;
67828;SDS011;54626;45.436;10.942;2024-01-07T06:01:57;0.00;;;0.00;;
67828;SDS011;54626;45.436;10.942;2024-01-07T06:04:25;0.08;;;0.08;;
67828;SDS011;54626;45.436;10.942;2024-01-07T06:06:51;0.00;;;0.00;;
67828;SDS011;54626;45.436;10.942;2024-01-07T06:09:20;0.03;;;0.03;;
67828;SDS011;54626;45.436;10.942;2024-01-07T06:11:47;0.00;;;0.00;;
67828;SDS011;54626;45.436;10.942;2024-01-07T06:14:18;0.00;;;0.00;;
67828;SDS011;54626;45.436;10.942;2024-01-07T06:19:15;0.10;;;0.10;;
67828;SDS011;54626;45.436;10.942;2024-01-07T06:21:47;0.00;;;0.00;;
67828;SDS011;54626;45.436;10.942;2024-01-07T06:26:41;0.00;;;0.00;;
67828;SDS011;54626;45.436;10.942;2024-01-07T06:31:42;0.00;;;0.00;;
67828;SDS011;54626;45.436;10.942;2024-01-07T06:34:12;0.00;;;0.00;;
67828;SDS011;54626;45.436;10.942;2024-01-07T06:36:43;0.00;;;0.00;;
67828;SDS011;54626;45.436;10.942;2024-01-07T06:39:20;0.45;;;0.28;;
67828;SDS011;54626;45.436;10.942;2024-01-07T06:44:57;0.00;;;0.00;;
67828;SDS011;54626;45.436;10.942;2024-01-07T06:47:30;0.20;;;0.20;;
67828;SDS011;54626;45.436;10.942;2024-01-07T06:50:02;0.30;;;0.30;;
67828;SDS011;54626;45.436;10.942;2024-01-07T06:52:30;0.00;;;0.00;;
67828;SDS011;54626;45.436;10.942;2024-01-07T06:54:57;0.57;;;0.57;;
67828;SDS011;54626;45.436;10.942;2024-01-07T06:57:24;0.10;;;0.10;;
67828;SDS011;54626;45.436;10.942;2024-01-07T06:59:52;0.17;;;0.17;;
67828;SDS011;54626;45.436;10.942;2024-01-07T07:02:21;0.00;;;0.00;;
67828;SDS011;54626;45.436;10.942;2024-01-07T07:04:48;0.10;;;0.10;;
67828;SDS011;54626;45.436;10.942;2024-01-07T07:07:17;0.03;;;0.03;;
67828;SDS011;54626;45.436;10.942;2024-01-07T07:09:43;0.10;;;0.10;;
67828;SDS011;54626;45.436;10.942;2024-01-07T07:12:14;0.13;;;0.13;;
67828;SDS011;54626;45.436;10.942;2024-01-07T07:14:40;0.00;;;0.00;;
67828;SDS011;54626;45.436;10.942;2024-01-07T07:17:07;0.05;;;0.03;;
67828;SDS011;54626;45.436;10.942;2024-01-07T07:19:35;0.35;;;0.20;;
67828;SDS011;54626;45.436;10.942;2024-01-07T07:22:01;0.20;;;0.20;;
67828;SDS011;54626;45.436;10.942;2024-01-07T07:24:30;0.38;;;0.10;;
67828;SDS011;54626;45.436;10.942;2024-01-07T07:27:00;0.00;;;0.00;;
67828;SDS011;54626;45.436;10.942;2024-01-07T07:29:26;0.10;;;0.10;;
67828;SDS011;54626;45.436;10.942;2024-01-07T07:31:53;4.38;;;0.22;;
67828;SDS011;54626;45.436;10.942;2024-01-07T07:34:21;0.10;;;0.10;;
67828;SDS011;54626;45.436;10.942;2024-01-07T07:40:03;0.22;;;0.22;;
67828;SDS011;54626;45.436;10.942;2024-01-07T07:42:30;0.22;;;0.22;;
67828;SDS011;54626;45.436;10.942;2024-01-07T07:45:02;1.05;;;1.00;;
67828;SDS011;54626;45.436;10.942;2024-01-07T07:47:29;0.57;;;0.57;;
67828;SDS011;54626;45.436;10.942;2024-01-07T07:50:03;0.40;;;0.40;;
67828;SDS011;54626;45.436;10.942;2024-01-07T07:52:33;1.63;;;0.50;;
67828;SDS011;54626;45.436;10.942;2024-01-07T07:57:33;0.00;;;0.00;;
67828;SDS011;54626;45.436;10.942;2024-01-07T08:00:00;0.65;;;0.20;;
67828;SDS011;54626;45.436;10.942;2024-01-07T08:02:30;0.05;;;0.05;;
67828;SDS011;54626;45.436;10.942;2024-01-07T08:05:15;0.00;;;0.00;;
67828;SDS011;54626;45.436;10.942;2024-01-07T08:07:43;0.05;;;0.05;;
67828;SDS011;54626;45.436;10.942;2024-01-07T08:10:12;0.10;;;0.10;;
67828;SDS011;54626;45.436;10.942;2024-01-07T08:12:39;0.00;;;0.00;;
67828;SDS011;54626;45.436;10.942;2024-01-07T08:19:24;0.20;;;0.20;;
67828;SDS011;54626;45.436;10.942;2024-01-07T08:21:51;0.00;;;0.00;;
67828;SDS011;54626;45.436;10.942;2024-01-07T08:24:33;0.10;;;0.10;;
67828;SDS011;54626;45.436;10.942;2024-01-07T08:27:01;0.05;;;0.05;;
67828;SDS011;54626;45.436;10.942;2024-01-07T08:29:29;0.05;;;0.05;;
67828;SDS011;54626;45.436;10.942;2024-01-07T08:34:22;0.03;;;0.03;;
67828;SDS011;54626;45.436;10.942;2024-01-07T08:36:52;0.20;;;0.20;;
67828;SDS011;54626;45.436;10.942;2024-01-07T08:39:22;0.35;;;0.17;;
67828;SDS011;54626;45.436;10.942;2024-01-07T08:41:50;0.17;;;0.17;;
67828;SDS011;54626;45.436;10.942;2024-01-07T08:44:17;0.15;;;0.15;;
67828;SDS011;54626;45.436;10.942;2024-01-07T08:46:54;0.00;;;0.00;;
67828;SDS011;54626;45.436;10.942;2024-01-07T08:49:30;0.25;;;0.25;;
67828;SDS011;54626;45.436;10.942;2024-01-07T08:52:09;0.20;;;0.20;;
67828;SDS011;54626;45.436;10.942;2024-01-07T08:54:50;0.08;;;0.08;;
67828;SDS011;54626;45.436;10.942;2024-01-07T08:59:47;0.03;;;0.03;;
67828;SDS011;54626;45.436;10.942;2024-01-07T09:05:21;0.10;;;0.10;;
67828;SDS011;54626;45.436;10.942;2024-01-07T09:07:49;0.00;;;0.00;;
67828;SDS011;54626;45.436;10.942;2024-01-07T09:10:19;0.03;;;0.03;;
67828;SDS011;54626;45.436;10.942;2024-01-07T09:12:47;2.78;;;0.22;;
67828;SDS011;54626;45.436;10.942;2024-01-07T09:15:27;0.95;;;0.50;;
67828;SDS011;54626;45.436;10.942;2024-01-07T09:17:54;0.00;;;0.00;;
67828;SDS011;54626;45.436;10.942;2024-01-07T09:20:21;0.25;;;0.25;;
67828;SDS011;54626;45.436;10.942;2024-01-07T09:22:49;2.78;;;2.58;;
67828;SDS011;54626;45.436;10.942;2024-01-07T09:25:18;4.70;;;1.38;;
67828;SDS011;54626;45.436;10.942;2024-01-07T09:27:48;1.08;;;0.75;;
67828;SDS011;54626;45.436;10.942;2024-01-07T09:32:41;0.00;;;0.00;;
67828;SDS011;54626;45.436;10.942;2024-01-07T09:35:08;0.20;;;0.20;;
67828;SDS011;54626;45.436;10.942;2024-01-07T09:37:35;0.05;;;0.05;;
67828;SDS011;54626;45.436;10.942;2024-01-07T09:43:05;0.08;;;0.08;;
67828;SDS011;54626;45.436;10.942;2024-01-07T09:48:24;0.22;;;0.22;;
67828;SDS011;54626;45.436;10.942;2024-01-07T09:50:51;1.95;;;0.73;;
67828;SDS011;54626;45.436;10.942;2024-01-07T09:53:19;0.20;;;0.20;;
67828;SDS011;54626;45.436;10.942;2024-01-07T09:55:55;1.25;;;0.65;;
67828;SDS011;54626;45.436;10.942;2024-01-07T09:58:32;0.20;;;0.20;;
67828;SDS011;54626;45.436;10.942;2024-01-07T10:00:59;0.22;;;0.20;;
67828;SDS011;54626;45.436;10.942;2024-01-07T10:03:26;0.77;;;0.75;;
67828;SDS011;54626;45.436;10.942;2024-01-07T10:05:52;0.10;;;0.10;;
67828;SDS011;54626;45.436;10.942;2024-01-07T10:08:19;0.65;;;0.55;;
67828;SDS011;54626;45.436;10.942;2024-01-07T10:10:48;0.10;;;0.10;;
67828;SDS011;54626;45.436;10.942;2024-01-07T10:13:15;0.20;;;0.20;;
67828;SDS011;54626;45.436;10.942;2024-01-07T10:15:42;0.05;;;0.05;;
67828;SDS011;54626;45.436;10.942;2024-01-07T10:20:35;2.25;;;0.63;;
67828;SDS011;54626;45.436;10.942;2024-01-07T10:23:02;0.00;;;0.00;;
67828;SDS011;54626;45.436;10.942;2024-01-07T10:25:34;0.20;;;0.20;;
67828;SDS011;54626;45.436;10.942;2024-01-07T10:28:03;1.08;;;0.30;;
67828;SDS011;54626;45.436;10.942;2024-01-07T10:30:30;0.00;;;0.00;;
67828;SDS011;54626;45.436;10.942;2024-01-07T10:32:58;0.30;;;0.30;;
67828;SDS011;54626;45.436;10.942;2024-01-07T10:35:27;0.20;;;0.20;;
67828;SDS011;54626;45.436;10.942;2024-01-07T10:38:01;0.10;;;0.10;;
67828;SDS011;54626;45.436;10.942;2024-01-07T10:40:30;0.15;;;0.15;;
67828;SDS011;54626;45.436;10.942;2024-01-07T10:42:59;0.55;;;0.40;;
67828;SDS011;54626;45.436;10.942;2024-01-07T10:45:26;0.00;;;0.00;;
67828;SDS011;54626;45.436;10.942;2024-01-07T10:47:55;0.40;;;0.40;;
67828;SDS011;54626;45.436;10.942;2024-01-07T10:50:26;0.38;;;0.38;;
67828;SDS011;54626;45.436;10.942;2024-01-07T10:52:57;0.60;;;0.47;;
67828;SDS011;54626;45.436;10.942;2024-01-07T10:55:33;0.10;;;0.10;;
67828;SDS011;54626;45.436;10.942;2024-01-07T10:58:07;0.20;;;0.13;;
67828;SDS011;54626;45.436;10.942;2024-01-07T11:00:35;0.57;;;0.40;;
67828;SDS011;54626;45.436;10.942;2024-01-07T11:03:14;0.10;;;0.10;;
67828;SDS011;54626;45.436;10.942;2024-01-07T11:06:11;1.85;;;0.30;;
67828;SDS011;54626;45.436;10.942;2024-01-07T11:09:02;0.30;;;0.20;;
67828;SDS011;54626;45.436;10.942;2024-01-07T11:11:40;0.10;;;0.10;;
67828;SDS011;54626;45.436;10.942;2024-01-07T11:17:03;0.55;;;0.52;;
67828;SDS011;54626;45.436;10.942;2024-01-07T11:19:30;0.28;;;0.28;;
67828;SDS011;54626;45.436;10.942;2024-01-07T11:24:55;0.05;;;0.05;;
67828;SDS011;54626;45.436;10.942;2024-01-07T11:27:23;0.57;;;0.57;;
67828;SDS011;54626;45.436;10.942;2024-01-07T11:29:53;0.40;;;0.35;;
67828;SDS011;54626;45.436;10.942;2024-01-07T11:32:23;1.35;;;0.73;;
67828;SDS011;54626;45.436;10.942;2024-01-07T11:34:54;0.10;;;0.10;;
67828;SDS011;54626;45.436;10.942;2024-01-07T11:37:24;0.15;;;0.15;;
67828;SDS011;54626;45.436;10.942;2024-01-07T11:39:53;0.08;;;0.08;;
67828;SDS011;54626;45.436;10.942;2024-01-07T11:42:21;0.50;;;0.50;;
67828;SDS011;54626;45.436;10.942;2024-01-07T11:44:54;0.88;;;0.88;;
67828;SDS011;54626;45.436;10.942;2024-01-07T11:47:22;0.35;;;0.22;;
67828;SDS011;54626;45.436;10.942;2024-01-07T11:49:54;0.10;;;0.10;;
67828;SDS011;54626;45.436;10.942;2024-01-07T11:54:48;0.75;;;0.63;;
67828;SDS011;54626;45.436;10.942;2024-01-07T11:57:15;3.33;;;1.02;;
67828;SDS011;54626;45.436;10.942;2024-01-07T12:02:42;0.28;;;0.28;;
67828;SDS011;54626;45.436;10.942;2024-01-07T12:05:27;0.00;;;0.00;;
67828;SDS011;54626;45.436;10.942;2024-01-07T12:08:02;0.80;;;0.30;;
67828;SDS011;54626;45.436;10.942;2024-01-07T12:10:31;0.28;;;0.22;;
67828;SDS011;54626;45.436;10.942;2024-01-07T12:15:30;0.55;;;0.55;;
67828;SDS011;54626;45.436;10.942;2024-01-07T12:20:26;0.00;;;0.00;;
67828;SDS011;54626;45.436;10.942;2024-01-07T12:23:37;0.00;;;0.00;;
67828;SDS011;54626;45.436;10.942;2024-01-07T12:26:11;0.00;;;0.00;;
67828;SDS011;54626;45.436;10.942;2024-01-07T12:28:38;0.10;;;0.10;;
67828;SDS011;54626;45.436;10.942;2024-01-07T12:31:12;0.38;;;0.38;;
67828;SDS011;54626;45.436;10.942;2024-01-07T12:33:39;0.43;;;0.38;;
67828;SDS011;54626;45.436;10.942;2024-01-07T12:36:09;0.00;;;0.00;;
67828;SDS011;54626;45.436;10.942;2024-01-07T12:38:38;1.45;;;0.63;;
67828;SDS011;54626;45.436;10.942;2024-01-07T12:41:05;0.75;;;0.75;;
67828;SDS011;54626;45.436;10.942;2024-01-07T12:43:32;0.17;;;0.17;;
67828;SDS011;54626;45.436;10.942;2024-01-07T12:45:59;0.10;;;0.10;;
67828;SDS011;54626;45.436;10.942;2024-01-07T12:48:32;0.05;;;0.05;;
67828;SDS011;54626;45.436;10.942;2024-01-07T12:51:00;0.10;;;0.10;;
67828;SDS011;54626;45.436;10.942;2024-01-07T12:53:27;0.00;;;0.00;;
67828;SDS011;54626;45.436;10.942;2024-01-07T12:58:23;0.25;;;0.22;;
67828;SDS011;54626;45.436;10.942;2024-01-07T13:00:49;0.43;;;0.30;;
67828;SDS011;54626;45.436;10.942;2024-01-07T13:03:16;1.88;;;0.38;;
67828;SDS011;54626;45.436;10.942;2024-01-07T13:05:46;0.20;;;0.20;;
67828;SDS011;54626;45.436;10.942;2024-01-07T13:08:17;6.75;;;1.00;;
67828;SDS011;54626;45.436;10.942;2024-01-07T13:10:52;1.02;;;0.98;;
67828;SDS011;54626;45.436;10.942;2024-01-07T13:13:21;0.20;;;0.15;;
67828;SDS011;54626;45.436;10.942;2024-01-07T13:15:48;0.00;;;0.00;;
67828;SDS011;54626;45.436;10.942;2024-01-07T13:18:16;0.00;;;0.00;;
67828;SDS011;54626;45.436;10.942;2024-01-07T13:20:43;0.05;;;0.05;;
67828;SDS011;54626;45.436;10.942;2024-01-07T13:25:36;1.45;;;0.75;;
67828;SDS011;54626;45.436;10.942;2024-01-07T13:30:32;0.00;;;0.00;;
67828;SDS011;54626;45.436;10.942;2024-01-07T13:33:21;0.40;;;0.40;;
67828;SDS011;54626;45.436;10.942;2024-01-07T13:35:48;0.63;;;0.57;;
67828;SDS011;54626;45.436;10.942;2024-01-07T13:38:15;0.00;;;0.00;;
67828;SDS011;54626;45.436;10.942;2024-01-07T13:40:42;4.15;;;0.60;;
67828;SDS011;54626;45.436;10.942;2024-01-07T13:45:35;2.63;;;0.57;;
67828;SDS011;54626;45.436;10.942;2024-01-07T13:50:29;0.98;;;0.65;;
67828;SDS011;54626;45.436;10.942;2024-01-07T13:52:58;0.00;;;0.00;;
67828;SDS011;54626;45.436;10.942;2024-01-07T13:55:25;0.57;;;0.57;;
67828;SDS011;54626;45.436;10.942;2024-01-07T13:58:01;2.70;;;0.65;;
67828;SDS011;54626;45.436;10.942;2024-01-07T14:00:27;0.03;;;0.03;;
67828;SDS011;54626;45.436;10.942;2024-01-07T14:02:54;0.17;;;0.17;;
67828;SDS011;54626;45.436;10.942;2024-01-07T14:05:26;0.63;;;0.30;;
67828;SDS011;54626;45.436;10.942;2024-01-07T14:07:53;0.80;;;0.40;;
67828;SDS011;54626;45.436;10.942;2024-01-07T14:10:19;0.00;;;0.00;;
67828;SDS011;54626;45.436;10.942;2024-01-07T14:12:46;0.63;;;0.63;;
67828;SDS011;54626;45.436;10.942;2024-01-07T14:15:17;0.63;;;0.40;;
67828;SDS011;54626;45.436;10.942;2024-01-07T14:17:46;0.32;;;0.32;;
67828;SDS011;54626;45.436;10.942;2024-01-07T14:20:12;0.45;;;0.45;;
67828;SDS011;54626;45.436;10.942;2024-01-07T14:22:39;0.20;;;0.20;;
67828;SDS011;54626;45.436;10.942;2024-01-07T14:28:31;0.80;;;0.80;;
67828;SDS011;54626;45.436;10.942;2024-01-07T14:30:58;0.40;;;0.40;;
67828;SDS011;54626;45.436;10.942;2024-01-07T14:33:25;0.03;;;0.03;;
67828;SDS011;54626;45.436;10.942;2024-01-07T14:42:30;0.82;;;0.28;;
67828;SDS011;54626;45.436;10.942;2024-01-07T14:47:23;0.20;;;0.20;;
67828;SDS011;54626;45.436;10.942;2024-01-07T14:52:18;0.98;;;0.98;;
67828;SDS011;54626;45.436;10.942;2024-01-07T14:57:11;0.43;;;0.43;;
67828;SDS011;54626;45.436;10.942;2024-01-07T14:59:38;0.05;;;0.05;;
67828;SDS011;54626;45.436;10.942;2024-01-07T15:02:05;1.35;;;1.05;;
67828;SDS011;54626;45.436;10.942;2024-01-07T15:04:31;1.27;;;0.52;;
67828;SDS011;54626;45.436;10.942;2024-01-07T15:06:58;0.50;;;0.50;;
67828;SDS011;54626;45.436;10.942;2024-01-07T15:09:27;0.38;;;0.38;;
67828;SDS011;54626;45.436;10.942;2024-01-07T15:11:57;0.00;;;0.00;;
67828;SDS011;54626;45.436;10.942;2024-01-07T15:14:25;0.20;;;0.20;;
67828;SDS011;54626;45.436;10.942;2024-01-07T15:16:52;0.35;;;0.35;;
67828;SDS011;54626;45.436;10.942;2024-01-07T15:19:22;0.47;;;0.47;;
67828;SDS011;54626;45.436;10.942;2024-01-07T15:21:50;0.55;;;0.55;;
67828;SDS011;54626;45.436;10.942;2024-01-07T15:24:17;0.75;;;0.68;;
67828;SDS011;54626;45.436;10.942;2024-01-07T15:26:44;0.77;;;0.77;;
67828;SDS011;54626;45.436;10.942;2024-01-07T15:29:12;0.75;;;0.68;;
67828;SDS011;54626;45.436;10.942;2024-01-07T15:31:40;6.15;;;1.77;;
67828;SDS011;54626;45.436;10.942;2024-01-07T15:34:07;4.65;;;1.48;;
67828;SDS011;54626;45.436;10.942;2024-01-07T15:36:34;0.52;;;0.52;;
67828;SDS011;54626;45.436;10.942;2024-01-07T15:39:01;0.70;;;0.57;;
67828;SDS011;54626;45.436;10.942;2024-01-07T15:41:30;1.23;;;1.13;;
67828;SDS011;54626;45.436;10.942;2024-01-07T15:44:00;0.98;;;0.98;;
67828;SDS011;54626;45.436;10.942;2024-01-07T15:46:26;0.05;;;0.05;;
67828;SDS011;54626;45.436;10.942;2024-01-07T15:51:21;0.10;;;0.10;;
67828;SDS011;54626;45.436;10.942;2024-01-07T15:53:48;0.08;;;0.08;;
67828;SDS011;54626;45.436;10.942;2024-01-07T15:58:43;0.20;;;0.20;;
67828;SDS011;54626;45.436;10.942;2024-01-07T16:01:10;0.15;;;0.15;;
67828;SDS011;54626;45.436;10.942;2024-01-07T16:03:37;0.55;;;0.55;;
67828;SDS011;54626;45.436;10.942;2024-01-07T16:06:06;1.30;;;0.95;;
67828;SDS011;54626;45.436;10.942;2024-01-07T16:08:36;1.70;;;0.98;;
67828;SDS011;54626;45.436;10.942;2024-01-07T16:11:03;1.00;;;1.00;;
67828;SDS011;54626;45.436;10.942;2024-01-07T16:13:35;0.45;;;0.45;;
67828;SDS011;54626;45.436;10.942;2024-01-07T16:16:08;0.45;;;0.45;;
67828;SDS011;54626;45.436;10.942;2024-01-07T16:21:47;2.38;;;0.70;;
67828;SDS011;54626;45.436;10.942;2024-01-07T16:24:14;0.68;;;0.57;;
67828;SDS011;54626;45.436;10.942;2024-01-07T16:26:45;1.30;;;1.17;;
67828;SDS011;54626;45.436;10.942;2024-01-07T16:29:13;0.20;;;0.20;;
67828;SDS011;54626;45.436;10.942;2024-01-07T16:31:45;0.45;;;0.45;;
67828;SDS011;54626;45.436;10.942;2024-01-07T16:34:19;1.20;;;0.73;;
67828;SDS011;54626;45.436;10.942;2024-01-07T16:36:46;0.98;;;0.98;;
67828;SDS011;54626;45.436;10.942;2024-01-07T16:39:15;1.55;;;1.45;;
67828;SDS011;54626;45.436;10.942;2024-01-07T16:44:08;0.68;;;0.68;;
67828;SDS011;54626;45.436;10.942;2024-01-07T16:46:39;3.42;;;2.55;;
67828;SDS011;54626;45.436;10.942;2024-01-07T16:49:12;2.22;;;2.03;;
67828;SDS011;54626;45.436;10.942;2024-01-07T16:51:59;1.00;;;1.00;;
67828;SDS011;54626;45.436;10.942;2024-01-07T16:54:26;3.85;;;1.30;;
67828;SDS011;54626;45.436;10.942;2024-01-07T16:56:53;1.08;;;0.98;;
67828;SDS011;54626;45.436;10.942;2024-01-07T16:59:24;0.93;;;0.63;;
67828;SDS011;54626;45.436;10.942;2024-01-07T17:01:51;1.13;;;1.02;;
67828;SDS011;54626;45.436;10.942;2024-01-07T17:04:20;0.93;;;0.93;;
67828;SDS011;54626;45.436;10.942;2024-01-07T17:06:56;1.08;;;0.77;;